Time;durP1;ratioP1;P1;durP2;ratioP2;P2;SDS_P1;SDS_P2;PMS_P1;PMS_P2;Temp;Humidity;BMP_temperature;BMP_pressure;BME280_temperature;BME280_humidity;BME280_pressure;Samples;Min_cycle;Max_cycle;Signal;HPM_P1;HPM_P2
2023/07/21 00:01:52;;;;;;;1.40;1.10;;;22.10;99.30;;;;;;5033750;28;20132;-43
2023/07/21 00:04:18;;;;;;;1.67;1.00;;;22.10;99.20;;;;;;5034106;28;20025;-43
2023/07/21 00:06:43;;;;;;;2.00;0.90;;;22.10;99.20;;;;;;5033738;28;20400;-41
2023/07/21 00:09:10;;;;;;;2.00;1.13;;;22.10;99.20;;;;;;5033457;28;20489;-41
2023/07/21 00:11:38;;;;;;;1.35;0.90;;;22.10;99.30;;;;;;5033624;28;20091;-42
2023/07/21 00:14:07;;;;;;;1.52;0.90;;;22.10;99.30;;;;;;5033590;28;20021;-42
2023/07/21 00:16:33;;;;;;;1.33;0.90;;;22.10;99.30;;;;;;5033435;28;20026;-41
2023/07/21 00:19:02;;;;;;;1.05;0.95;;;22.10;99.30;;;;;;5033080;28;20128;-43
2023/07/21 00:21:28;;;;;;;1.20;1.10;;;22.10;99.30;;;;;;5033557;28;20036;-41
2023/07/21 00:23:55;;;;;;;2.53;1.05;;;22.10;99.30;;;;;;5033366;28;20045;-44
2023/07/21 00:26:20;;;;;;;1.20;0.90;;;22.10;99.20;;;;;;5033340;28;20037;-43
2023/07/21 00:28:46;;;;;;;1.80;0.90;;;22.10;99.30;;;;;;5033178;28;20026;-42
2023/07/21 00:31:13;;;;;;;1.10;1.00;;;22.10;99.30;;;;;;5032940;28;20484;-41
2023/07/21 00:33:38;;;;;;;1.40;1.00;;;22.10;99.30;;;;;;5033251;28;20047;-45
2023/07/21 00:36:04;;;;;;;1.20;1.00;;;22.10;99.30;;;;;;5033427;28;20096;-43
2023/07/21 00:38:30;;;;;;;1.70;1.20;;;22.10;99.40;;;;;;5033010;28;20028;-41
2023/07/21 00:40:56;;;;;;;1.25;0.95;;;22.10;99.30;;;;;;5032908;28;20025;-41
2023/07/21 00:43:22;;;;;;;0.88;0.80;;;22.10;99.30;;;;;;5033012;28;20113;-44
2023/07/21 00:45:48;;;;;;;2.95;1.10;;;22.10;99.30;;;;;;5032851;28;20401;-45
2023/07/21 00:48:17;;;;;;;1.58;1.17;;;22.10;99.20;;;;;;5032862;28;20037;-43
2023/07/21 00:50:48;;;;;;;2.42;1.10;;;22.10;99.60;;;;;;5032619;28;20076;-41
2023/07/21 00:53:14;;;;;;;2.00;1.30;;;22.10;99.20;;;;;;5032843;28;20293;-42
2023/07/21 00:55:43;;;;;;;3.10;1.10;;;22.10;99.20;;;;;;5032808;28;20040;-42
2023/07/21 00:58:10;;;;;;;1.65;1.08;;;22.10;99.20;;;;;;5032628;28;20014;-44
2023/07/21 01:00:40;;;;;;;1.77;1.33;;;22.10;99.20;;;;;;5032492;28;20335;-42
2023/07/21 01:03:08;;;;;;;2.15;1.00;;;22.10;99.20;;;;;;5032221;28;20112;-41
2023/07/21 01:05:36;;;;;;;3.28;1.15;;;22.10;99.20;;;;;;5032582;28;20029;-42
2023/07/21 01:08:06;;;;;;;1.80;1.17;;;22.00;99.20;;;;;;5032384;28;20033;-43
2023/07/21 01:10:33;;;;;;;2.28;1.02;;;22.00;99.20;;;;;;5032208;28;20057;-45
2023/07/21 01:13:00;;;;;;;1.90;1.00;;;22.10;99.20;;;;;;5032381;28;20024;-41
2023/07/21 01:15:28;;;;;;;1.20;1.08;;;22.00;99.20;;;;;;5032399;28;20021;-42
2023/07/21 01:17:55;;;;;;;1.17;0.82;;;22.10;99.30;;;;;;5032190;28;20548;-43
2023/07/21 01:20:24;;;;;;;1.10;1.00;;;22.10;99.20;;;;;;5032662;28;20021;-45
2023/07/21 01:23:00;;;;;;;1.20;0.90;;;22.10;99.20;;;;;;5032299;28;20026;-43
2023/07/21 01:25:28;;;;;;;1.50;0.98;;;22.00;99.30;;;;;;5032150;28;20021;-43
2023/07/21 01:27:55;;;;;;;1.35;1.00;;;22.10;99.40;;;;;;5032357;28;20032;-42
2023/07/21 01:30:22;;;;;;;1.10;1.00;;;22.00;99.30;;;;;;5031803;28;20026;-46
2023/07/21 01:32:50;;;;;;;1.90;0.98;;;22.10;99.30;;;;;;5014440;28;20032;-42
2023/07/21 01:35:17;;;;;;;1.38;1.00;;;22.00;99.20;;;;;;5032081;28;20037;-44
2023/07/21 01:37:45;;;;;;;1.70;1.00;;;22.10;99.20;;;;;;5031891;28;20026;-44
2023/07/21 01:40:13;;;;;;;1.67;1.17;;;22.00;99.20;;;;;;5031940;28;20025;-45
2023/07/21 01:42:41;;;;;;;1.40;1.00;;;22.00;99.20;;;;;;5031905;28;20022;-44
2023/07/21 01:45:07;;;;;;;2.08;0.90;;;22.00;99.20;;;;;;5031850;28;20021;-44
2023/07/21 01:47:34;;;;;;;1.13;1.00;;;22.10;99.30;;;;;;5031725;28;20036;-44
2023/07/21 01:50:00;;;;;;;2.97;0.90;;;22.00;99.30;;;;;;5031538;28;20021;-44
2023/07/21 01:52:31;;;;;;;1.77;1.00;;;22.00;99.30;;;;;;5031555;28;20053;-43
2023/07/21 01:55:20;;;;;;;1.48;1.30;;;22.00;99.60;;;;;;5031849;28;20397;-46
2023/07/21 01:57:51;;;;;;;1.48;1.10;;;22.00;99.20;;;;;;5031280;28;20038;-45
2023/07/21 02:00:20;;;;;;;1.10;1.00;;;22.00;99.20;;;;;;5031407;28;20089;-46
2023/07/21 02:02:47;;;;;;;2.05;1.10;;;22.00;99.30;;;;;;5031422;28;20029;-45
2023/07/21 02:05:22;;;;;;;1.65;1.10;;;22.00;99.30;;;;;;5031545;28;20025;-43
2023/07/21 02:07:49;;;;;;;1.35;1.00;;;22.00;99.30;;;;;;5031427;28;20478;-44
2023/07/21 02:10:16;;;;;;;1.55;0.98;;;22.00;99.30;;;;;;5031225;28;20028;-43
2023/07/21 02:12:41;;;;;;;1.30;1.10;;;22.00;99.30;;;;;;5031365;28;20104;-44
2023/07/21 02:15:08;;;;;;;1.42;1.10;;;22.00;99.30;;;;;;5030740;28;20450;-42
2023/07/21 02:17:33;;;;;;;1.50;1.00;;;22.00;99.30;;;;;;5031208;28;20346;-43
2023/07/21 02:19:59;;;;;;;1.35;1.05;;;22.00;99.30;;;;;;5031131;28;20029;-42
2023/07/21 02:22:25;;;;;;;1.00;0.80;;;22.00;99.30;;;;;;5031382;28;20076;-42
2023/07/21 02:24:51;;;;;;;1.35;1.10;;;22.00;99.30;;;;;;5031373;28;20021;-42
2023/07/21 02:27:17;;;;;;;1.40;0.88;;;22.00;99.30;;;;;;5031262;28;20021;-42
2023/07/21 02:29:48;;;;;;;1.42;1.10;;;22.00;99.30;;;;;;5030942;28;20025;-42
2023/07/21 02:32:14;;;;;;;1.70;1.08;;;22.00;99.30;;;;;;5031404;28;20504;-43
2023/07/21 02:34:41;;;;;;;1.30;1.00;;;22.00;99.30;;;;;;5031200;28;20053;-42
2023/07/21 02:37:07;;;;;;;5.65;1.23;;;22.00;99.30;;;;;;5031288;28;20021;-46
2023/07/21 02:39:32;;;;;;;1.48;1.00;;;21.90;99.30;;;;;;5030856;28;20477;-42
2023/07/21 02:42:01;;;;;;;1.83;1.20;;;22.00;99.60;;;;;;5031176;28;20038;-44
2023/07/21 02:44:27;;;;;;;2.25;1.13;;;22.00;99.30;;;;;;5030976;28;20108;-42
2023/07/21 02:46:53;;;;;;;1.83;1.20;;;21.90;99.30;;;;;;5031175;28;20535;-43
2023/07/21 02:49:19;;;;;;;1.63;0.77;;;22.00;99.30;;;;;;5030839;28;20042;-42
2023/07/21 02:51:44;;;;;;;1.48;1.00;;;22.00;99.30;;;;;;5031089;28;20033;-43
2023/07/21 02:54:10;;;;;;;1.23;1.02;;;21.90;99.30;;;;;;5031149;28;20072;-44
2023/07/21 02:56:37;;;;;;;0.90;0.60;;;22.00;99.30;;;;;;5030959;28;20057;-43
2023/07/21 02:59:02;;;;;;;1.60;1.10;;;22.00;99.30;;;;;;5030587;28;20442;-43
2023/07/21 03:01:29;;;;;;;2.17;1.10;;;21.90;99.30;;;;;;5013224;28;20481;-42
2023/07/21 03:03:55;;;;;;;1.63;1.00;;;22.00;99.40;;;;;;5030910;28;20029;-44
2023/07/21 03:06:21;;;;;;;1.25;1.00;;;22.00;99.30;;;;;;5031183;28;20069;-42
2023/07/21 03:08:47;;;;;;;5.03;1.02;;;21.90;99.30;;;;;;5030708;28;20064;-44
2023/07/21 03:11:14;;;;;;;1.40;1.10;;;21.90;99.30;;;;;;5030652;28;20489;-42
2023/07/21 03:13:44;;;;;;;1.67;1.08;;;22.00;99.30;;;;;;5031187;28;20057;-43
2023/07/21 03:16:12;;;;;;;3.03;1.00;;;22.00;99.70;;;;;;5030951;28;20021;-45
2023/07/21 03:18:37;;;;;;;2.30;1.33;;;21.90;99.30;;;;;;5030533;28;20409;-44
2023/07/21 03:21:03;;;;;;;1.60;1.10;;;21.90;99.30;;;;;;5030596;28;20028;-44
2023/07/21 03:23:29;;;;;;;1.73;1.00;;;21.90;99.30;;;;;;5030809;28;20393;-43
2023/07/21 03:25:55;;;;;;;1.38;1.10;;;21.90;99.30;;;;;;5030722;28;20211;-42
2023/07/21 03:28:21;;;;;;;1.13;1.00;;;21.90;99.30;;;;;;5034237;28;20174;-41
2023/07/21 03:30:56;;;;;;;1.33;1.10;;;21.90;99.40;;;;;;5034140;28;20030;-44
2023/07/21 03:33:22;;;;;;;1.85;1.00;;;21.90;99.80;;;;;;5016554;28;20083;-42
2023/07/21 03:35:48;;;;;;;2.65;1.13;;;21.90;99.50;;;;;;5034252;28;20025;-44
2023/07/21 03:38:13;;;;;;;1.00;0.82;;;21.90;99.50;;;;;;5034193;28;20116;-43
2023/07/21 03:40:39;;;;;;;4.13;1.50;;;21.90;99.50;;;;;;5033841;28;20029;-42
2023/07/21 03:43:04;;;;;;;1.13;1.02;;;21.90;99.30;;;;;;5034193;28;20060;-44
2023/07/21 03:45:31;;;;;;;2.47;1.30;;;21.90;99.20;;;;;;5034264;28;20044;-44
2023/07/21 03:48:00;;;;;;;1.30;0.90;;;21.80;99.20;;;;;;5016488;28;20493;-42
2023/07/21 03:50:27;;;;;;;3.00;1.30;;;21.90;99.10;;;;;;5016416;28;20051;-44
2023/07/21 03:52:53;;;;;;;1.42;1.10;;;21.90;99.20;;;;;;5034372;28;20428;-43
2023/07/21 03:55:23;;;;;;;1.30;0.93;;;21.90;99.30;;;;;;5034106;28;20477;-41
2023/07/21 03:57:48;;;;;;;1.30;1.00;;;21.80;99.40;;;;;;5034047;28;20104;-41
2023/07/21 04:00:15;;;;;;;1.70;1.15;;;21.80;99.40;;;;;;5033709;28;20560;-42
2023/07/21 04:02:40;;;;;;;1.45;0.90;;;21.90;99.40;;;;;;5033911;28;20075;-44
2023/07/21 04:05:06;;;;;;;1.80;1.10;;;21.80;99.40;;;;;;5033805;28;20022;-44
2023/07/21 04:07:31;;;;;;;2.80;1.08;;;21.80;99.40;;;;;;5033669;28;20037;-43
2023/07/21 04:09:58;;;;;;;3.15;1.08;;;21.90;99.50;;;;;;5033270;28;20028;-40
2023/07/21 04:12:24;;;;;;;1.40;0.90;;;21.80;99.80;;;;;;5033532;28;20025;-44
2023/07/21 04:14:49;;;;;;;1.65;1.13;;;21.80;99.50;;;;;;5033616;28;20032;-43
2023/07/21 04:17:15;;;;;;;2.00;1.00;;;21.80;99.40;;;;;;5033586;28;20489;-46
2023/07/21 04:19:41;;;;;;;1.90;1.38;;;21.80;99.50;;;;;;5033148;28;20031;-41
2023/07/21 04:22:06;;;;;;;1.65;1.15;;;21.80;99.40;;;;;;5033437;28;20025;-42
2023/07/21 04:24:33;;;;;;;1.45;1.15;;;21.80;99.30;;;;;;5033257;28;20025;-40
2023/07/21 04:26:59;;;;;;;1.88;1.05;;;21.80;99.30;;;;;;5033538;28;20029;-41
2023/07/21 04:29:25;;;;;;;1.42;1.00;;;21.80;99.30;;;;;;5033042;28;20025;-42
2023/07/21 04:31:50;;;;;;;1.70;1.05;;;21.80;99.30;;;;;;5033227;28;20068;-42
2023/07/21 04:34:16;;;;;;;1.80;1.10;;;21.80;99.40;;;;;;5033318;28;20497;-41
2023/07/21 04:36:42;;;;;;;0.95;0.80;;;21.80;99.30;;;;;;5033240;28;20022;-42
2023/07/21 04:39:07;;;;;;;1.75;1.02;;;21.80;99.40;;;;;;5032043;28;20021;-40
2023/07/21 04:41:33;;;;;;;1.77;1.10;;;21.80;99.40;;;;;;5033079;28;20094;-41
2023/07/21 04:43:59;;;;;;;1.70;1.23;;;21.80;99.40;;;;;;5033141;28;20443;-41
2023/07/21 04:46:25;;;;;;;1.13;1.00;;;21.80;99.30;;;;;;5033102;28;20026;-44
2023/07/21 04:48:50;;;;;;;1.20;1.00;;;21.80;99.30;;;;;;5032760;28;20354;-43
2023/07/21 04:51:16;;;;;;;1.80;1.10;;;21.80;99.30;;;;;;5033260;28;20112;-44
2023/07/21 04:53:42;;;;;;;1.63;1.00;;;21.80;99.40;;;;;;5015161;28;20025;-43
2023/07/21 04:56:07;;;;;;;1.20;0.88;;;21.80;99.30;;;;;;5032829;28;20036;-40
2023/07/21 04:58:33;;;;;;;1.75;1.10;;;21.80;99.30;;;;;;5032713;28;20044;-43
2023/07/21 05:00:58;;;;;;;1.50;1.10;;;21.80;99.30;;;;;;5032539;28;20026;-43
2023/07/21 05:03:24;;;;;;;1.58;1.02;;;21.80;99.30;;;;;;5032741;28;20554;-44
2023/07/21 05:05:50;;;;;;;2.42;1.00;;;21.80;99.20;;;;;;5015113;28;20022;-41
2023/07/21 05:08:15;;;;;;;1.10;0.95;;;21.80;99.30;;;;;;5032401;28;20399;-41
2023/07/21 05:10:41;;;;;;;1.60;1.00;;;21.80;99.40;;;;;;5032277;28;20032;-40
2023/07/21 05:13:07;;;;;;;2.03;1.33;;;21.80;99.40;;;;;;5032575;28;20032;-41
2023/07/21 05:15:35;;;;;;;2.88;1.08;;;21.80;99.20;;;;;;5032508;28;20480;-42
2023/07/21 05:18:01;;;;;;;1.35;0.95;;;21.80;99.20;;;;;;5032287;28;20487;-46
2023/07/21 05:20:27;;;;;;;1.67;1.23;;;21.80;99.20;;;;;;5032156;28;20141;-41
2023/07/21 05:22:52;;;;;;;2.30;1.20;;;21.80;99.20;;;;;;5032670;28;20465;-42
2023/07/21 05:25:18;;;;;;;1.75;1.10;;;21.80;99.20;;;;;;5032169;28;20117;-47
2023/07/21 05:27:47;;;;;;;1.42;1.10;;;21.80;99.20;;;;;;5032144;28;20026;-41
2023/07/21 05:30:13;;;;;;;1.30;1.10;;;21.80;99.20;;;;;;5031950;28;20014;-43
2023/07/21 05:32:41;;;;;;;4.47;1.35;;;21.80;99.20;;;;;;5031955;28;20037;-42
2023/07/21 05:35:13;;;;;;;1.25;1.10;;;21.80;99.20;;;;;;5032059;28;20393;-41
2023/07/21 05:37:39;;;;;;;1.83;1.10;;;21.80;99.20;;;;;;5031889;28;20029;-42
2023/07/21 05:40:06;;;;;;;1.30;1.20;;;21.80;99.20;;;;;;5031761;28;20083;-41
2023/07/21 05:42:31;;;;;;;1.50;0.90;;;21.80;99.20;;;;;;5031998;28;20029;-41
2023/07/21 05:44:57;;;;;;;2.05;0.93;;;21.80;99.20;;;;;;5031876;28;20031;-45
2023/07/21 05:47:22;;;;;;;1.17;0.85;;;21.80;99.20;;;;;;5031789;28;20029;-41
2023/07/21 05:49:48;;;;;;;1.95;1.05;;;21.80;99.20;;;;;;5031534;28;20109;-45
2023/07/21 05:52:14;;;;;;;1.67;1.20;;;21.80;99.10;;;;;;5031651;28;20477;-42
2023/07/21 05:54:41;;;;;;;1.50;1.10;;;21.80;99.10;;;;;;5031781;28;20338;-42
2023/07/21 05:57:07;;;;;;;1.75;1.15;;;21.80;99.10;;;;;;5031694;28;20017;-42
2023/07/21 05:59:32;;;;;;;1.33;1.02;;;21.80;99.10;;;;;;5031346;28;20017;-42
2023/07/21 06:01:59;;;;;;;1.52;0.95;;;21.80;99.10;;;;;;5031656;28;20029;-40
2023/07/21 06:04:25;;;;;;;2.28;1.10;;;21.80;99.10;;;;;;5031958;28;20049;-41
2023/07/21 06:06:50;;;;;;;1.52;1.10;;;21.80;99.50;;;;;;5013838;28;20476;-41
2023/07/21 06:09:17;;;;;;;1.40;0.80;;;21.80;99.10;;;;;;5031339;28;20291;-41
2023/07/21 06:11:42;;;;;;;1.38;1.00;;;21.80;99.10;;;;;;5031429;28;20108;-39
2023/07/21 06:14:08;;;;;;;2.95;1.20;;;21.80;99.10;;;;;;5031481;28;20101;-40
2023/07/21 06:16:34;;;;;;;1.42;1.00;;;21.80;99.10;;;;;;5031846;28;20468;-40
2023/07/21 06:19:00;;;;;;;2.38;1.02;;;21.80;99.00;;;;;;5030927;28;20441;-44
2023/07/21 06:21:25;;;;;;;1.50;1.15;;;21.80;99.10;;;;;;5031475;28;20036;-41
2023/07/21 06:23:53;;;;;;;2.90;1.10;;;21.80;99.00;;;;;;5031274;28;20022;-42
2023/07/21 06:26:19;;;;;;;1.60;1.20;;;21.80;99.00;;;;;;5013632;28;20053;-41
2023/07/21 06:28:44;;;;;;;1.67;1.13;;;21.80;99.00;;;;;;5031117;28;20520;-41
2023/07/21 06:31:11;;;;;;;2.05;1.10;;;21.80;99.00;;;;;;5031155;28;20112;-42
2023/07/21 06:33:37;;;;;;;1.63;1.00;;;21.80;99.00;;;;;;5013410;28;20477;-39
2023/07/21 06:36:03;;;;;;;1.42;1.20;;;21.80;99.00;;;;;;5031195;28;20033;-41
2023/07/21 06:38:28;;;;;;;1.85;1.17;;;21.80;99.00;;;;;;5031041;28;20068;-41
2023/07/21 06:40:54;;;;;;;1.75;1.25;;;21.80;99.00;;;;;;5030952;28;20374;-41
2023/07/21 06:43:20;;;;;;;1.42;1.10;;;21.80;99.00;;;;;;5031130;28;20052;-41
2023/07/21 06:45:45;;;;;;;1.20;0.93;;;21.80;99.00;;;;;;5031100;28;20049;-42
2023/07/21 06:48:11;;;;;;;1.40;1.00;;;21.80;99.00;;;;;;5030929;28;20029;-41
2023/07/21 06:50:38;;;;;;;1.33;1.08;;;21.80;99.00;;;;;;5030801;28;20044;-41
2023/07/21 06:53:05;;;;;;;2.80;1.25;;;21.80;99.00;;;;;;5030966;28;20049;-42
2023/07/21 06:55:32;;;;;;;1.98;1.10;;;21.90;99.00;;;;;;5031007;28;20033;-45
2023/07/21 06:57:58;;;;;;;2.78;1.02;;;21.80;99.00;;;;;;5030984;28;20025;-43
2023/07/21 07:00:23;;;;;;;1.58;1.20;;;21.90;99.00;;;;;;5030749;28;20024;-44
2023/07/21 07:02:49;;;;;;;1.45;1.05;;;21.80;99.00;;;;;;5033931;28;20507;-42
2023/07/21 07:05:18;;;;;;;1.48;1.08;;;21.90;99.00;;;;;;5034902;28;20017;-42
2023/07/21 07:07:45;;;;;;;1.52;0.90;;;21.80;99.00;;;;;;5034962;28;20029;-39
2023/07/21 07:10:10;;;;;;;2.88;1.23;;;21.80;99.00;;;;;;5034847;28;20474;-41
2023/07/21 07:12:38;;;;;;;1.20;0.90;;;21.80;99.00;;;;;;5034639;28;20022;-40
2023/07/21 07:15:04;;;;;;;2.28;0.95;;;21.80;99.00;;;;;;5034687;28;20025;-43
2023/07/21 07:17:30;;;;;;;1.90;1.17;;;21.80;99.00;;;;;;5034335;28;20067;-41
2023/07/21 07:19:56;;;;;;;1.05;0.93;;;21.90;99.00;;;;;;5034471;28;20108;-42
2023/07/21 07:22:21;;;;;;;1.65;0.98;;;21.90;99.00;;;;;;5035068;28;20026;-42
2023/07/21 07:24:48;;;;;;;1.70;1.02;;;21.90;99.00;;;;;;5034502;28;20033;-42
2023/07/21 07:27:13;;;;;;;1.10;1.00;;;21.90;99.00;;;;;;5034487;28;20047;-42
2023/07/21 07:29:40;;;;;;;1.52;0.90;;;21.90;99.00;;;;;;5034156;28;20036;-42
2023/07/21 07:32:06;;;;;;;1.70;1.10;;;21.90;99.00;;;;;;5034688;28;20026;-41
2023/07/21 07:34:32;;;;;;;1.33;0.93;;;21.90;99.10;;;;;;5034595;28;20488;-44
2023/07/21 07:36:58;;;;;;;2.03;1.00;;;21.90;99.10;;;;;;5034310;28;20080;-44
2023/07/21 07:39:24;;;;;;;0.93;0.80;;;21.90;99.10;;;;;;5034050;28;20025;-41
2023/07/21 07:41:51;;;;;;;1.58;1.13;;;21.90;99.10;;;;;;5034282;28;20103;-40
2023/07/21 07:44:18;;;;;;;1.10;0.95;;;21.90;99.10;;;;;;5034175;28;20025;-44
2023/07/21 07:46:43;;;;;;;2.83;1.13;;;22.00;99.10;;;;;;5034036;28;20029;-41
2023/07/21 07:49:09;;;;;;;2.92;1.10;;;21.90;99.10;;;;;;5033850;28;20034;-42
2023/07/21 07:51:38;;;;;;;0.85;0.77;;;22.00;99.10;;;;;;5016138;28;20083;-42
2023/07/21 07:54:05;;;;;;;1.88;1.10;;;22.00;99.10;;;;;;5033956;28;20021;-41
2023/07/21 07:56:31;;;;;;;1.08;0.70;;;21.90;99.10;;;;;;5033989;28;20013;-42
2023/07/21 07:58:57;;;;;;;2.10;1.20;;;22.00;99.10;;;;;;5033717;28;20076;-41
2023/07/21 08:01:23;;;;;;;1.13;0.90;;;22.00;99.10;;;;;;5033802;28;20033;-43
2023/07/21 08:03:49;;;;;;;2.22;0.90;;;22.00;99.10;;;;;;5033813;28;20065;-41
2023/07/21 08:06:15;;;;;;;1.33;0.98;;;22.00;99.10;;;;;;5033733;28;20064;-41
2023/07/21 08:08:42;;;;;;;1.55;0.90;;;21.90;99.10;;;;;;5033627;28;20030;-42
2023/07/21 08:11:08;;;;;;;1.30;1.00;;;22.00;99.10;;;;;;5033531;28;20034;-41
2023/07/21 08:13:34;;;;;;;1.10;0.90;;;21.90;99.10;;;;;;5032371;28;20101;-42
2023/07/21 08:16:00;;;;;;;1.25;0.85;;;22.00;99.10;;;;;;5015722;28;20435;-39
2023/07/21 08:18:26;;;;;;;2.40;0.80;;;22.00;99.10;;;;;;5033412;28;20030;-45
2023/07/21 08:20:51;;;;;;;1.13;0.90;;;21.90;99.10;;;;;;5033312;28;20026;-42
2023/07/21 08:23:17;;;;;;;1.52;0.98;;;22.00;99.10;;;;;;5033445;28;20033;-44
2023/07/21 08:25:43;;;;;;;1.00;0.90;;;22.00;99.10;;;;;;5033378;28;20029;-42
2023/07/21 08:28:08;;;;;;;1.33;0.90;;;22.00;99.10;;;;;;5033191;28;20033;-44
2023/07/21 08:30:35;;;;;;;2.50;0.93;;;22.00;99.10;;;;;;5033088;28;20036;-44
2023/07/21 08:33:01;;;;;;;1.17;0.80;;;22.00;99.10;;;;;;5033315;28;20112;-44
2023/07/21 08:35:27;;;;;;;1.35;0.90;;;22.00;99.10;;;;;;5033216;28;20022;-42
2023/07/21 08:37:54;;;;;;;0.93;0.75;;;22.00;99.10;;;;;;5033213;28;20048;-42
2023/07/21 08:40:22;;;;;;;1.08;0.98;;;22.00;99.10;;;;;;5032991;28;20642;-41
2023/07/21 08:42:49;;;;;;;1.45;0.70;;;22.00;99.40;;;;;;5033016;28;20580;-42
2023/07/21 08:45:15;;;;;;;1.17;0.90;;;22.00;99.00;;;;;;5033081;28;20032;-40
2023/07/21 08:47:41;;;;;;;1.50;0.90;;;22.00;99.00;;;;;;5033021;28;20468;-42
2023/07/21 08:50:07;;;;;;;1.00;0.70;;;22.00;99.00;;;;;;5032763;28;20444;-42
2023/07/21 08:52:33;;;;;;;1.17;1.00;;;22.00;99.00;;;;;;5032819;28;20033;-43
2023/07/21 08:55:00;;;;;;;1.23;0.98;;;22.00;99.00;;;;;;5032896;28;20167;-42
2023/07/21 08:57:27;;;;;;;1.02;0.90;;;22.00;99.00;;;;;;5032647;28;20094;-42
2023/07/21 08:59:55;;;;;;;1.00;0.80;;;22.10;99.10;;;;;;5032574;28;20025;-44
2023/07/21 09:02:38;;;;;;;0.70;0.70;;;22.00;99.00;;;;;;5032884;28;20091;-44
2023/07/21 09:05:04;;;;;;;1.02;0.80;;;22.00;99.00;;;;;;5032652;28;20064;-44
2023/07/21 09:07:31;;;;;;;1.33;0.90;;;22.00;99.00;;;;;;5032553;28;20062;-43
2023/07/21 09:09:56;;;;;;;1.50;0.70;;;22.00;99.00;;;;;;5032259;28;20536;-44
2023/07/21 09:12:22;;;;;;;1.38;0.98;;;22.00;99.00;;;;;;5032451;28;20120;-43
2023/07/21 09:14:48;;;;;;;1.80;0.90;;;22.00;99.00;;;;;;5032410;28;20080;-44
2023/07/21 09:17:15;;;;;;;1.20;1.00;;;22.10;99.00;;;;;;5032418;28;20018;-41
2023/07/21 09:19:43;;;;;;;1.00;0.80;;;22.10;99.00;;;;;;5031899;28;20034;-45
2023/07/21 09:22:11;;;;;;;1.20;0.75;;;22.10;99.00;;;;;;5032341;28;20061;-41
2023/07/21 09:24:48;;;;;;;1.33;0.90;;;22.10;99.00;;;;;;5031988;28;20103;-49
2023/07/21 09:27:15;;;;;;;1.50;0.90;;;22.10;99.00;;;;;;5032296;28;20033;-43
2023/07/21 09:29:43;;;;;;;1.40;0.70;;;22.10;99.00;;;;;;5031863;28;20029;-41
2023/07/21 09:32:16;;;;;;;1.27;0.80;;;22.10;98.90;;;;;;5032103;28;20492;-44
2023/07/21 09:35:02;;;;;;;0.90;0.77;;;22.10;98.90;;;;;;5032099;28;20028;-44
2023/07/21 09:37:30;;;;;;;3.28;0.80;;;22.10;99.00;;;;;;5032180;28;20027;-45
2023/07/21 09:40:00;;;;;;;0.82;0.75;;;22.10;98.90;;;;;;5031717;28;20049;-46
2023/07/21 09:42:27;;;;;;;1.00;0.75;;;22.10;98.90;;;;;;5031940;28;20029;-43
2023/07/21 09:44:55;;;;;;;0.80;0.70;;;22.10;98.90;;;;;;5031944;28;20120;-43
2023/07/21 09:47:21;;;;;;;2.63;0.77;;;22.10;99.00;;;;;;5031750;28;20025;-43
2023/07/21 09:49:49;;;;;;;0.95;0.88;;;22.10;99.00;;;;;;5031805;28;20029;-41
2023/07/21 09:52:16;;;;;;;1.17;0.70;;;22.10;99.00;;;;;;5031758;28;20025;-42
2023/07/21 09:54:45;;;;;;;1.00;0.68;;;22.10;99.00;;;;;;5031790;28;20104;-41
2023/07/21 09:57:16;;;;;;;1.08;0.68;;;22.10;98.90;;;;;;5031747;28;20021;-41
2023/07/21 09:59:49;;;;;;;0.90;0.60;;;22.10;98.90;;;;;;5031409;28;20014;-42
2023/07/21 10:02:15;;;;;;;1.08;0.75;;;22.10;98.90;;;;;;5031619;28;20033;-42
2023/07/21 10:04:43;;;;;;;0.88;0.70;;;22.10;98.90;;;;;;5031618;28;20029;-41
2023/07/21 10:07:10;;;;;;;1.38;0.70;;;22.10;98.90;;;;;;5031610;28;20116;-42
2023/07/21 10:09:36;;;;;;;1.00;0.80;;;22.10;98.90;;;;;;5031576;28;20030;-42
2023/07/21 10:12:16;;;;;;;1.25;1.02;;;22.20;98.80;;;;;;5031546;28;20436;-39
2023/07/21 10:14:44;;;;;;;1.50;0.73;;;22.10;98.80;;;;;;5031477;28;20021;-42
2023/07/21 10:17:11;;;;;;;0.90;0.55;;;22.10;98.80;;;;;;5031643;28;20096;-41
2023/07/21 10:19:46;;;;;;;1.55;0.73;;;22.10;98.80;;;;;;5031036;28;20125;-42
2023/07/21 10:22:22;;;;;;;0.90;0.70;;;22.10;98.80;;;;;;5031419;28;20417;-42
2023/07/21 10:24:51;;;;;;;1.30;0.70;;;22.10;98.80;;;;;;5031243;28;20025;-43
2023/07/21 10:27:24;;;;;;;0.88;0.73;;;22.10;98.80;;;;;;5031299;28;20054;-41
2023/07/21 10:30:18;;;;;;;0.80;0.65;;;22.10;99.10;;;;;;5031046;28;20022;-42
2023/07/21 10:32:43;;;;;;;1.35;0.70;;;22.10;98.80;;;;;;5031165;28;20097;-43
2023/07/21 10:35:37;;;;;;;0.68;0.60;;;22.10;98.80;;;;;;5031182;28;20101;-41
2023/07/21 10:38:14;;;;;;;1.08;0.80;;;22.10;98.80;;;;;;5030802;28;20045;-41
2023/07/21 10:40:44;;;;;;;0.82;0.60;;;22.20;98.90;;;;;;5031231;28;20124;-42
2023/07/21 10:43:11;;;;;;;1.80;0.80;;;22.20;98.80;;;;;;5031123;28;20018;-41
2023/07/21 10:45:37;;;;;;;1.02;0.70;;;22.20;98.70;;;;;;5031101;28;20547;-42
2023/07/21 10:48:13;;;;;;;1.33;0.80;;;22.20;98.70;;;;;;5030985;28;20436;-42
2023/07/21 10:50:51;;;;;;;1.05;0.70;;;22.20;98.80;;;;;;5030801;28;20036;-44
2023/07/21 10:53:16;;;;;;;0.82;0.70;;;22.20;98.70;;;;;;5031060;28;20112;-47
2023/07/21 10:55:42;;;;;;;1.20;1.00;;;22.20;98.70;;;;;;5031037;28;20167;-42
2023/07/21 10:58:08;;;;;;;0.98;0.80;;;22.20;98.70;;;;;;5030802;28;20635;-40
2023/07/21 11:00:48;;;;;;;1.23;0.80;;;22.20;98.70;;;;;;5030972;28;20025;-43
2023/07/21 11:03:14;;;;;;;0.85;0.60;;;22.20;98.70;;;;;;5031064;28;20017;-41
2023/07/21 11:05:40;;;;;;;1.10;0.90;;;22.30;98.70;;;;;;5030923;28;20028;-44
2023/07/21 11:08:10;;;;;;;1.30;0.80;;;22.20;98.70;;;;;;5030853;28;20021;-41
2023/07/21 11:10:36;;;;;;;0.88;0.70;;;22.20;98.70;;;;;;5030530;28;20036;-41
2023/07/21 11:13:02;;;;;;;1.08;0.73;;;22.20;98.70;;;;;;5030819;28;20412;-40
2023/07/21 11:15:28;;;;;;;0.88;0.80;;;22.20;98.70;;;;;;5031009;28;20025;-42
2023/07/21 11:18:00;;;;;;;1.58;0.70;;;22.20;98.70;;;;;;5030605;28;20033;-43
2023/07/21 11:20:26;;;;;;;3.53;0.85;;;22.20;98.70;;;;;;5030547;28;20503;-43
2023/07/21 11:22:51;;;;;;;0.90;0.80;;;22.20;98.70;;;;;;5030776;28;20026;-41
2023/07/21 11:25:17;;;;;;;2.65;0.80;;;22.20;98.70;;;;;;5030671;28;20033;-40
2023/07/21 11:27:44;;;;;;;1.63;0.63;;;22.20;98.70;;;;;;5030910;28;20125;-43
2023/07/21 11:30:10;;;;;;;0.90;0.80;;;22.20;98.70;;;;;;5030658;28;20401;-42
2023/07/21 11:32:36;;;;;;;0.80;0.63;;;22.20;98.70;;;;;;5030692;28;20449;-43
2023/07/21 11:35:03;;;;;;;1.38;0.80;;;22.20;98.70;;;;;;5030704;28;20061;-40
2023/07/21 11:37:40;;;;;;;2.95;0.70;;;22.20;98.70;;;;;;5030675;28;20039;-41
2023/07/21 11:40:13;;;;;;;1.42;0.80;;;22.20;98.70;;;;;;5030351;28;20369;-42
2023/07/21 11:42:46;;;;;;;2.40;0.80;;;22.20;98.60;;;;;;5030645;28;20108;-42
2023/07/21 11:45:34;;;;;;;0.95;0.80;;;22.20;98.70;;;;;;5030580;28;20540;-42
2023/07/21 11:48:19;;;;;;;2.50;0.80;;;22.10;98.60;;;;;;5032155;28;20025;-41
2023/07/21 11:50:50;;;;;;;1.35;0.88;;;22.10;98.60;;;;;;5033859;28;20037;-42
2023/07/21 11:53:16;;;;;;;1.67;0.93;;;22.20;98.70;;;;;;5034034;28;20456;-41
2023/07/21 11:55:43;;;;;;;1.20;0.82;;;22.20;98.60;;;;;;5034007;28;20049;-40
2023/07/21 11:58:13;;;;;;;1.02;0.77;;;22.10;98.60;;;;;;5033889;28;20124;-42
2023/07/21 12:00:41;;;;;;;1.35;0.80;;;22.20;98.70;;;;;;5033539;28;20026;-42
2023/07/21 12:03:09;;;;;;;0.80;0.70;;;22.20;98.70;;;;;;5033881;28;20017;-42
2023/07/21 12:05:35;;;;;;;1.10;0.70;;;22.10;98.60;;;;;;5033855;28;20025;-41
2023/07/21 12:08:00;;;;;;;1.65;0.80;;;22.20;98.70;;;;;;5033941;28;20022;-42
2023/07/21 12:10:26;;;;;;;0.90;0.68;;;22.10;98.60;;;;;;5033528;28;20034;-44
2023/07/21 12:12:53;;;;;;;0.93;0.70;;;22.20;98.70;;;;;;5033583;28;20037;-41
2023/07/21 12:15:19;;;;;;;1.40;0.88;;;22.10;98.60;;;;;;5033503;28;20057;-43
2023/07/21 12:17:47;;;;;;;1.35;0.90;;;22.10;98.60;;;;;;5033607;28;20451;-43
2023/07/21 12:20:13;;;;;;;1.65;0.88;;;22.10;98.60;;;;;;5033374;28;20079;-45
2023/07/21 12:22:40;;;;;;;0.90;0.70;;;22.10;98.60;;;;;;5033468;28;20025;-42
2023/07/21 12:25:07;;;;;;;1.40;0.77;;;22.10;98.60;;;;;;5033472;28;20450;-48
2023/07/21 12:27:34;;;;;;;1.42;0.80;;;22.10;98.60;;;;;;5033350;28;20587;-43
2023/07/21 12:30:02;;;;;;;2.50;0.80;;;22.10;98.60;;;;;;5033063;28;20030;-42
2023/07/21 12:32:27;;;;;;;1.10;0.80;;;22.10;98.70;;;;;;5033254;28;20086;-44
2023/07/21 12:34:53;;;;;;;1.70;1.00;;;22.10;98.70;;;;;;5033244;28;20430;-41
2023/07/21 12:37:19;;;;;;;1.20;0.85;;;22.10;98.60;;;;;;5033423;28;20029;-42
2023/07/21 12:39:46;;;;;;;1.20;0.90;;;22.10;98.60;;;;;;5033062;28;20048;-41
2023/07/21 12:42:12;;;;;;;0.80;0.70;;;22.10;98.70;;;;;;5033688;28;20075;-43
2023/07/21 12:44:38;;;;;;;1.20;0.80;;;22.10;99.00;;;;;;5033520;28;20037;-42
2023/07/21 12:47:05;;;;;;;3.95;1.00;;;22.10;98.70;;;;;;5033242;28;20029;-42
2023/07/21 12:49:32;;;;;;;1.10;0.77;;;22.10;98.60;;;;;;5032719;28;20032;-45